Time;durP1;ratioP1;P1;durP2;ratioP2;P2;SDS_P1;SDS_P2;PMS_P1;PMS_P2;Temp;Humidity;BMP_temperature;BMP_pressure;BME280_temperature;BME280_humidity;BME280_pressure;Samples;Min_cycle;Max_cycle;Signal;HPM_P1;HPM_P2
2022/04/24 00:00:56;;;;;;;16.98;7.63;;;;;;;11.89;52.03;100349.50;5053095;28;20107;-81
2022/04/24 00:03:21;;;;;;;11.07;7.55;;;;;;;11.88;52.28;100347.03;5053484;28;20024;-82
2022/04/24 00:05:47;;;;;;;12.65;7.47;;;;;;;11.86;52.34;100344.50;5056034;28;20029;-83
2022/04/24 00:08:13;;;;;;;10.52;7.10;;;;;;;11.87;52.32;100356.94;5060197;28;20043;-81
2022/04/24 00:10:38;;;;;;;12.60;8.07;;;;;;;11.80;52.71;100350.69;5062058;28;20035;-81
2022/04/24 00:13:04;;;;;;;10.15;6.90;;;;;;;11.77;52.83;100356.47;5058191;28;20064;-81
2022/04/24 00:15:29;;;;;;;10.65;6.88;;;;;;;11.78;52.92;100358.16;5056273;28;20041;-81
2022/04/24 00:17:54;;;;;;;12.90;7.50;;;;;;;11.74;52.76;100351.47;5056675;28;20025;-81
2022/04/24 00:20:20;;;;;;;9.35;7.30;;;;;;;11.75;52.89;100347.78;5056815;28;20032;-81
2022/04/24 00:22:45;;;;;;;11.50;7.35;;;;;;;11.75;53.12;100353.16;5056508;28;20029;-83
2022/04/24 00:25:10;;;;;;;10.68;7.57;;;;;;;11.73;53.00;100350.66;5055273;28;20064;-82
2022/04/24 00:27:36;;;;;;;19.83;7.20;;;;;;;11.68;53.69;100349.59;5054616;28;20024;-82
2022/04/24 00:30:03;;;;;;;10.02;6.78;;;;;;;11.64;53.73;100339.22;5055612;28;20040;-80
2022/04/24 00:32:28;;;;;;;12.15;7.75;;;;;;;11.68;53.70;100350.44;5054339;28;20460;-83
2022/04/24 00:34:53;;;;;;;9.00;7.38;;;;;;;11.71;53.62;100343.81;5053347;28;20127;-84
2022/04/24 00:37:19;;;;;;;9.77;7.18;;;;;;;11.70;53.79;100344.84;5053617;28;20147;-81
2022/04/24 00:39:44;;;;;;;9.60;7.13;;;;;;;11.68;53.87;100341.50;5053495;28;20423;-82
2022/04/24 00:42:09;;;;;;;10.32;7.35;;;;;;;11.63;53.98;100342.94;5053390;28;20029;-81
2022/04/24 00:44:35;;;;;;;9.70;7.40;;;;;;;11.62;54.25;100349.38;5053381;28;20029;-84
2022/04/24 00:47:11;;;;;;;11.00;7.95;;;;;;;11.56;54.26;100347.50;5053229;28;20051;-81
2022/04/24 00:49:38;;;;;;;11.15;7.78;;;;;;;11.55;54.42;100342.28;5053137;28;20051;-83
2022/04/24 00:52:03;;;;;;;12.73;6.93;;;;;;;11.54;54.37;100341.47;5051956;28;20041;-80
2022/04/24 00:54:29;;;;;;;10.38;7.25;;;;;;;11.49;54.50;100333.13;5052513;28;20037;-80
2022/04/24 00:56:54;;;;;;;10.50;7.70;;;;;;;11.45;54.51;100342.66;5052585;28;20112;-82
2022/04/24 00:59:19;;;;;;;12.88;7.60;;;;;;;11.45;54.51;100337.25;5052749;28;20108;-81
2022/04/24 01:01:45;;;;;;;10.52;7.85;;;;;;;11.34;55.17;100335.13;5052938;28;20062;-81
2022/04/24 01:04:11;;;;;;;12.88;8.00;;;;;;;11.33;55.14;100338.88;5053008;28;20071;-82
2022/04/24 01:06:40;;;;;;;10.52;7.75;;;;;;;11.31;55.31;100333.66;5052668;28;20057;-79
2022/04/24 01:09:22;;;;;;;15.20;8.20;;;;;;;11.29;55.50;100330.34;5052866;28;20023;-81
2022/04/24 01:11:54;;;;;;;9.93;7.43;;;;;;;11.27;55.60;100328.88;5051741;28;20052;-81
2022/04/24 01:14:20;;;;;;;13.52;8.55;;;;;;;11.26;55.85;100332.59;5052901;28;20465;-82
2022/04/24 01:16:47;;;;;;;14.25;8.35;;;;;;;11.21;56.09;100336.72;5052759;28;20104;-81
2022/04/24 01:19:13;;;;;;;16.20;8.38;;;;;;;11.14;56.73;100335.03;5052635;28;20036;-81
2022/04/24 01:21:41;;;;;;;12.50;8.30;;;;;;;11.20;56.65;100343.16;5052935;28;20020;-80
2022/04/24 01:24:06;;;;;;;;;;;;;;;11.10;57.07;100337.28;5052756;28;20054;-81
2022/04/24 01:26:32;;;;;;;14.07;8.57;;;;;;;11.11;57.06;100340.78;5052663;28;19944;-82
2022/04/24 01:28:58;;;;;;;12.00;8.60;;;;;;;11.10;57.61;100329.19;5052086;28;20032;-82
2022/04/24 01:31:23;;;;;;;12.23;8.57;;;;;;;11.08;57.83;100325.88;5052707;28;20029;-83
2022/04/24 01:33:48;;;;;;;15.65;9.65;;;;;;;11.10;58.12;100341.84;5052596;28;20159;-83
2022/04/24 01:36:14;;;;;;;15.05;10.13;;;;;;;11.09;58.18;100338.31;5052390;28;20063;-79
2022/04/24 01:38:42;;;;;;;14.00;9.82;;;;;;;11.04;58.78;100338.09;5052547;28;20130;-81
2022/04/24 01:41:08;;;;;;;18.40;10.07;;;;;;;11.03;58.91;100339.09;5052493;28;20365;-81
2022/04/24 01:43:36;;;;;;;16.85;10.93;;;;;;;10.98;59.04;100341.56;5053522;28;20037;-81
2022/04/24 01:46:01;;;;;;;;;;;;;;;11.01;59.47;100335.78;5057472;28;20113;-80
2022/04/24 01:48:28;;;;;;;14.25;10.23;;;;;;;10.93;59.80;100338.63;5054530;28;19943;-83
2022/04/24 01:50:56;;;;;;;14.98;10.18;;;;;;;10.89;59.81;100334.66;5052317;28;20032;-82
2022/04/24 01:53:21;;;;;;;19.88;10.20;;;;;;;10.96;59.81;100338.25;5055540;28;20031;-81
2022/04/24 01:55:47;;;;;;;17.52;11.00;;;;;;;10.97;59.66;100339.88;5054542;28;20037;-80
2022/04/24 01:58:12;;;;;;;16.83;10.80;;;;;;;10.94;59.67;100337.59;5052096;28;20109;-82
2022/04/24 02:00:37;;;;;;;17.98;11.02;;;;;;;10.93;60.08;100333.25;5051890;28;20025;-82
2022/04/24 02:03:03;;;;;;;17.50;11.45;;;;;;;10.95;60.20;100337.41;5052499;28;20111;-81
2022/04/24 02:05:28;;;;;;;20.45;11.90;;;;;;;10.92;60.48;100339.66;5050842;28;20044;-82
2022/04/24 02:07:53;;;;;;;21.90;11.52;;;;;;;10.87;60.88;100342.09;5052027;28;20029;-80
2022/04/24 02:10:19;;;;;;;20.35;11.35;;;;;;;10.86;61.28;100343.13;5052279;28;20029;-81
2022/04/24 02:12:44;;;;;;;17.00;11.50;;;;;;;10.87;61.46;100344.78;5051833;28;20369;-81
2022/04/24 02:15:10;;;;;;;18.42;11.40;;;;;;;10.84;61.76;100340.63;5051852;28;20032;-79
2022/04/24 02:17:35;;;;;;;21.05;12.82;;;;;;;10.82;61.94;100347.22;5052236;28;20021;-81
2022/04/24 02:20:02;;;;;;;18.33;12.98;;;;;;;10.78;61.90;100346.78;5052443;28;20033;-83
2022/04/24 02:22:32;;;;;;;17.65;11.65;;;;;;;10.76;62.23;100341.59;5052535;28;20025;-83
2022/04/24 02:24:57;;;;;;;19.77;12.27;;;;;;;10.73;62.43;100338.47;5064095;28;20076;-82
2022/04/24 02:27:22;;;;;;;21.38;13.07;;;;;;;10.77;62.29;100345.16;5074453;28;20055;-82
2022/04/24 02:29:48;;;;;;;21.15;12.68;;;;;;;10.73;62.65;100347.38;5074826;28;20029;-82
2022/04/24 02:32:13;;;;;;;17.92;12.80;;;;;;;10.64;63.04;100340.50;5074356;28;20052;-81
2022/04/24 02:34:38;;;;;;;18.63;11.95;;;;;;;10.66;63.10;100349.16;5129056;22;20109;-82
2022/04/24 02:37:04;;;;;;;18.85;12.18;;;;;;;10.65;63.16;100344.81;5066912;28;20630;-81
2022/04/24 02:39:29;;;;;;;18.67;11.77;;;;;;;10.62;63.04;100350.59;5083701;28;20041;-80
2022/04/24 02:41:55;;;;;;;20.20;12.07;;;;;;;10.59;63.60;100345.63;5085284;28;20029;-81
2022/04/24 02:44:20;;;;;;;18.30;12.15;;;;;;;10.60;63.64;100349.97;5069052;28;20021;-78
2022/04/24 02:46:45;;;;;;;19.85;12.13;;;;;;;10.54;63.74;100356.13;5070748;28;20021;-77
2022/04/24 02:49:11;;;;;;;17.95;11.70;;;;;;;10.51;63.70;100346.59;5066891;28;20430;-80
2022/04/24 02:51:36;;;;;;;20.40;12.15;;;;;;;10.51;63.96;100345.75;5078351;28;20488;-78
2022/04/24 02:54:01;;;;;;;19.50;12.02;;;;;;;10.50;63.86;100344.91;5088640;28;20046;-79
2022/04/24 02:56:26;;;;;;;23.38;11.65;;;;;;;10.46;64.08;100351.72;5072186;28;20032;-79
2022/04/24 02:58:52;;;;;;;21.63;12.80;;;;;;;10.43;64.35;100356.66;5098550;28;20044;-78
2022/04/24 03:01:18;;;;;;;20.33;11.88;;;;;;;10.45;64.32;100357.28;5094159;28;20116;-80
2022/04/24 03:03:45;;;;;;;22.85;12.10;;;;;;;10.42;64.60;100363.88;5091109;28;20025;-79
2022/04/24 03:06:10;;;;;;;24.05;11.82;;;;;;;10.36;64.76;100358.44;5089991;28;20325;-79
2022/04/24 03:08:37;;;;;;;17.92;11.52;;;;;;;10.35;64.86;100356.75;5077126;28;20049;-81
2022/04/24 03:11:03;;;;;;;16.50;11.90;;;;;;;10.31;64.90;100356.31;5068530;28;20033;-79
2022/04/24 03:13:28;;;;;;;18.08;11.45;;;;;;;10.26;65.12;100359.56;5070045;28;20118;-79
2022/04/24 03:15:53;;;;;;;17.52;11.73;;;;;;;10.28;65.19;100354.84;5068335;28;20036;-78
2022/04/24 03:18:18;;;;;;;18.48;11.43;;;;;;;10.27;65.32;100350.50;5066564;28;20029;-78
2022/04/24 03:20:44;;;;;;;22.13;10.77;;;;;;;10.24;65.20;100350.88;5067088;28;20016;-79
2022/04/24 03:23:10;;;;;;;16.17;11.48;;;;;;;10.20;65.19;100351.44;5063868;28;20405;-79
2022/04/24 03:25:35;;;;;;;17.63;11.13;;;;;;;10.18;65.62;100348.91;5064887;28;20044;-79
2022/04/24 03:28:01;;;;;;;14.88;10.85;;;;;;;10.16;65.47;100359.03;5065912;28;20028;-79
2022/04/24 03:30:26;;;;;;;15.77;10.88;;;;;;;10.15;65.36;100352.00;5070023;28;20016;-79
2022/04/24 03:32:51;;;;;;;18.45;10.52;;;;;;;10.13;65.35;100351.34;5068366;28;20029;-80
2022/04/24 03:35:17;;;;;;;16.73;11.13;;;;;;;10.09;65.58;100355.47;5060440;28;20150;-80
2022/04/24 03:37:43;;;;;;;19.42;10.98;;;;;;;10.09;65.71;100352.78;5062995;28;20033;-77
2022/04/24 03:40:09;;;;;;;16.02;10.73;;;;;;;10.05;65.51;100352.28;5063679;28;20480;-80
2022/04/24 03:42:35;;;;;;;16.88;10.38;;;;;;;9.99;65.76;100347.69;5071538;28;20040;-78
2022/04/24 03:45:01;;;;;;;16.70;10.43;;;;;;;9.98;65.91;100345.19;5084091;28;20027;-78
2022/04/24 03:47:27;;;;;;;17.27;11.32;;;;;;;9.93;65.82;100344.94;5085670;28;20035;-80
2022/04/24 03:49:52;;;;;;;18.42;10.82;;;;;;;9.96;66.13;100341.88;5082526;28;20096;-79
2022/04/24 03:52:18;;;;;;;15.65;10.82;;;;;;;9.92;66.07;100346.78;5086872;28;20032;-77
2022/04/24 03:54:43;;;;;;;21.27;11.15;;;;;;;9.94;66.21;100343.91;5081396;28;20020;-78
2022/04/24 03:57:09;;;;;;;18.67;10.20;;;;;;;9.85;66.22;100346.72;5087640;28;20391;-78
2022/04/24 03:59:35;;;;;;;16.42;9.90;;;;;;;9.85;66.60;100338.66;5082521;28;20084;-78
2022/04/24 04:02:00;;;;;;;17.98;9.88;;;;;;;9.84;66.19;100341.53;5087956;28;20056;-79
2022/04/24 04:04:26;;;;;;;18.10;10.10;;;;;;;9.86;66.00;100344.84;5088837;28;20060;-79
2022/04/24 04:06:52;;;;;;;17.73;9.85;;;;;;;9.79;66.17;100347.44;5083740;28;20021;-79
2022/04/24 04:09:17;;;;;;;17.40;9.68;;;;;;;9.80;65.85;100349.13;5087264;28;20044;-79
2022/04/24 04:11:42;;;;;;;17.23;10.20;;;;;;;9.76;65.88;100345.16;5083216;28;20039;-80
2022/04/24 04:14:08;;;;;;;16.33;10.45;;;;;;;9.76;66.21;100345.16;5087937;28;20031;-79
2022/04/24 04:16:34;;;;;;;15.48;9.95;;;;;;;9.79;65.66;100354.69;5084656;28;20404;-78
2022/04/24 04:18:59;;;;;;;17.92;8.80;;;;;;;9.71;66.12;100344.88;5079515;28;20122;-79
2022/04/24 04:21:24;;;;;;;13.27;8.48;;;;;;;9.69;66.04;100352.31;5084854;28;20028;-79
2022/04/24 04:23:50;;;;;;;17.75;9.55;;;;;;;9.71;66.20;100344.88;5084595;28;20039;-79
2022/04/24 04:26:17;;;;;;;14.30;10.05;;;;;;;9.59;66.35;100349.09;5085705;28;20028;-79
2022/04/24 04:28:44;;;;;;;16.73;10.00;;;;;;;9.64;66.10;100350.19;5083618;28;20093;-78
2022/04/24 04:31:10;;;;;;;16.10;9.47;;;;;;;9.66;66.35;100347.28;5083302;28;20044;-79
2022/04/24 04:33:35;;;;;;;14.25;9.38;;;;;;;9.66;66.26;100353.53;5081967;28;20060;-80
2022/04/24 04:36:01;;;;;;;17.67;9.00;;;;;;;9.65;66.11;100362.59;5088363;28;20056;-79
2022/04/24 04:38:26;;;;;;;27.45;9.85;;;;;;;9.62;66.18;100365.66;5082480;28;20079;-79
2022/04/24 04:40:51;;;;;;;14.40;9.10;;;;;;;9.63;66.01;100361.13;5083970;28;20085;-80
2022/04/24 04:43:18;;;;;;;15.57;9.00;;;;;;;9.58;66.56;100368.91;5086882;28;20201;-80
2022/04/24 04:45:43;;;;;;;11.68;8.90;;;;;;;9.64;66.16;100368.16;5084327;28;20024;-78
2022/04/24 04:48:09;;;;;;;14.02;8.85;;;;;;;9.62;66.00;100368.34;5084945;28;20055;-79
2022/04/24 04:50:34;;;;;;;17.80;9.07;;;;;;;9.62;65.84;100370.22;5086357;28;20029;-79
2022/04/24 04:52:59;;;;;;;13.32;9.02;;;;;;;9.64;65.97;100369.00;5086828;28;20033;-78
2022/04/24 04:55:25;;;;;;;11.75;8.48;;;;;;;9.68;66.08;100366.75;5085538;28;20012;-78
2022/04/24 04:57:50;;;;;;;14.75;8.52;;;;;;;9.71;65.84;100366.38;5082763;28;20056;-79
2022/04/24 05:00:16;;;;;;;15.05;8.63;;;;;;;9.68;66.11;100375.66;5085767;28;20035;-78
2022/04/24 05:02:42;;;;;;;14.52;8.73;;;;;;;9.70;65.98;100380.03;5083698;28;20029;-80
2022/04/24 05:05:08;;;;;;;11.85;8.32;;;;;;;9.78;65.92;100375.38;5083307;28;20029;-79
2022/04/24 05:07:34;;;;;;;13.48;8.52;;;;;;;9.86;65.50;100380.63;5086004;28;20028;-79
2022/04/24 05:09:59;;;;;;;13.63;8.60;;;;;;;9.91;65.20;100388.13;5084357;28;20051;-80
2022/04/24 05:12:26;;;;;;;15.25;8.75;;;;;;;9.92;64.98;100386.28;5087034;28;20076;-79
2022/04/24 05:14:52;;;;;;;11.43;7.80;;;;;;;9.91;65.25;100390.81;5084734;28;20098;-79
2022/04/24 05:17:17;;;;;;;12.65;7.70;;;;;;;10.02;64.78;100392.19;5080654;28;20033;-79
2022/04/24 05:19:42;;;;;;;12.25;7.72;;;;;;;10.07;64.57;100387.06;5086434;28;20601;-79
2022/04/24 05:22:08;;;;;;;11.07;7.53;;;;;;;10.11;64.33;100383.00;5086506;28;20468;-79
2022/04/24 05:24:33;;;;;;;10.52;6.75;;;;;;;10.19;64.20;100390.94;5085333;28;20033;-79
2022/04/24 05:27:01;;;;;;;14.20;7.68;;;;;;;10.21;64.67;100390.72;5087036;28;20028;-79
2022/04/24 05:29:27;;;;;;;11.93;7.32;;;;;;;10.27;64.37;100398.91;5085417;28;20091;-79
2022/04/24 05:31:52;;;;;;;20.13;8.60;;;;;;;10.36;63.87;100398.78;5086733;28;20024;-78
2022/04/24 05:34:17;;;;;;;11.20;7.75;;;;;;;10.44;63.44;100404.03;5081147;28;20049;-79
2022/04/24 05:36:43;;;;;;;12.23;7.45;;;;;;;10.47;63.44;100403.66;5082929;28;20276;-79
2022/04/24 05:39:08;;;;;;;9.50;7.25;;;;;;;10.60;62.73;100409.16;5089376;28;20021;-78
2022/04/24 05:41:33;;;;;;;14.25;6.85;;;;;;;10.81;62.23;100412.88;5094410;28;20039;-79
2022/04/24 05:43:59;;;;;;;9.05;7.18;;;;;;;11.14;61.28;100407.75;5084626;28;20098;-79
2022/04/24 05:46:24;;;;;;;10.48;6.68;;;;;;;11.59;60.18;100406.38;5080965;28;20008;-78
2022/04/24 05:48:49;;;;;;;12.27;7.13;;;;;;;12.20;58.13;100410.19;5084791;28;20042;-78
2022/04/24 05:51:15;;;;;;;8.68;6.68;;;;;;;12.80;55.87;100411.13;5085037;28;20020;-80
2022/04/24 05:53:40;;;;;;;11.48;6.75;;;;;;;13.50;54.11;100416.06;5084015;28;20028;-79
2022/04/24 05:56:05;;;;;;;13.38;7.00;;;;;;;14.18;51.86;100421.84;5080251;28;20024;-79
2022/04/24 05:58:31;;;;;;;9.77;6.65;;;;;;;14.75;50.48;100413.00;5083491;28;20420;-78
2022/04/24 06:00:56;;;;;;;12.73;6.90;;;;;;;15.16;49.35;100428.69;5088452;28;20040;-80
2022/04/24 06:03:21;;;;;;;10.63;6.93;;;;;;;15.58;48.27;100427.03;5087069;28;20021;-80
2022/04/24 06:05:48;;;;;;;9.82;6.00;;;;;;;16.02;46.86;100424.25;5086445;28;20020;-79
2022/04/24 06:08:14;;;;;;;10.03;6.47;;;;;;;16.40;45.79;100426.69;5084330;28;20056;-81
2022/04/24 06:10:39;;;;;;;8.45;6.32;;;;;;;16.55;45.42;100441.72;5082616;28;20287;-79
2022/04/24 06:13:05;;;;;;;9.95;6.40;;;;;;;16.60;45.29;100431.00;5081746;28;20056;-80
2022/04/24 06:15:30;;;;;;;11.38;6.95;;;;;;;16.84;45.01;100440.88;5087912;28;20049;-80
2022/04/24 06:17:57;;;;;;;13.15;7.57;;;;;;;17.21;43.96;100432.53;5086559;28;20055;-81
2022/04/24 06:20:23;;;;;;;8.50;6.47;;;;;;;17.41;43.67;100445.81;5084754;28;20236;-81
2022/04/24 06:22:50;;;;;;;12.20;7.00;;;;;;;17.55;43.38;100439.03;5085935;28;20028;-80
2022/04/24 06:25:18;;;;;;;13.32;6.68;;;;;;;18.06;42.08;100438.50;5087068;28;20080;-80
2022/04/24 06:27:44;;;;;;;10.43;7.22;;;;;;;18.23;41.78;100444.03;5086074;28;20028;-79
2022/04/24 06:30:10;;;;;;;10.95;6.75;;;;;;;18.38;41.47;100442.44;5084509;28;20510;-80
2022/04/24 06:32:41;;;;;;;8.88;6.75;;;;;;;18.47;41.01;100434.69;5087066;28;20027;-80
2022/04/24 06:35:09;;;;;;;8.38;6.78;;;;;;;18.68;40.45;100435.06;5083607;28;20052;-80
2022/04/24 06:37:34;;;;;;;9.55;6.82;;;;;;;18.71;40.78;100449.03;5086725;28;20046;-80
2022/04/24 06:40:00;;;;;;;9.25;6.55;;;;;;;18.70;40.04;100452.00;5088582;28;20105;-81
2022/04/24 06:42:25;;;;;;;10.43;7.45;;;;;;;18.54;40.42;100450.91;5086367;28;20080;-80
2022/04/24 06:44:50;;;;;;;9.57;7.20;;;;;;;18.76;39.80;100451.06;5086545;28;20112;-80
2022/04/24 06:47:16;;;;;;;7.95;6.80;;;;;;;18.87;39.78;100444.69;5086637;28;20032;-79
2022/04/24 06:49:41;;;;;;;9.60;6.88;;;;;;;19.13;38.85;100450.59;5084124;28;20085;-79
2022/04/24 06:52:06;;;;;;;7.80;6.22;;;;;;;19.20;39.09;100456.69;5085989;28;20078;-81
2022/04/24 06:54:32;;;;;;;8.38;7.03;;;;;;;19.28;38.29;100454.38;5085832;28;20446;-80
2022/04/24 06:57:01;;;;;;;8.75;7.25;;;;;;;19.41;38.52;100450.47;5083329;28;20036;-81
2022/04/24 06:59:27;;;;;;;11.13;6.88;;;;;;;19.69;37.99;100465.91;5085405;28;20052;-81
2022/04/24 07:01:52;;;;;;;9.05;6.55;;;;;;;19.83;37.50;100450.00;5088851;28;20033;-81
2022/04/24 07:04:17;;;;;;;11.13;6.97;;;;;;;20.15;37.11;100450.13;5081560;28;20470;-81
2022/04/24 07:06:43;;;;;;;11.68;7.22;;;;;;;20.23;36.74;100457.06;5089204;28;20083;-80
2022/04/24 07:09:08;;;;;;;9.93;6.88;;;;;;;20.21;36.83;100461.94;5085755;28;20028;-80
2022/04/24 07:11:34;;;;;;;14.48;7.38;;;;;;;20.33;36.56;100465.38;5084713;28;20016;-80
2022/04/24 07:13:59;;;;;;;10.68;7.00;;;;;;;20.67;36.22;100464.38;5080563;28;20021;-80
2022/04/24 07:16:24;;;;;;;10.95;7.13;;;;;;;20.89;35.83;100461.59;5087072;28;20468;-81
2022/04/24 07:18:50;;;;;;;11.85;6.80;;;;;;;21.07;34.78;100463.94;5087266;28;20090;-80
2022/04/24 07:21:15;;;;;;;8.73;6.70;;;;;;;20.88;35.10;100473.59;5087438;28;20032;-81
2022/04/24 07:23:40;;;;;;;13.25;7.30;;;;;;;20.92;35.69;100472.00;5083333;28;20283;-81
2022/04/24 07:26:05;;;;;;;9.82;7.13;;;;;;;21.14;34.84;100467.28;5083718;28;20446;-81
2022/04/24 07:28:32;;;;;;;13.48;7.32;;;;;;;21.41;34.48;100477.38;5080472;28;20037;-81
2022/04/24 07:30:57;;;;;;;10.55;7.40;;;;;;;21.39;33.90;100474.06;5085522;28;20084;-80
2022/04/24 07:33:23;;;;;;;9.90;7.25;;;;;;;21.36;34.65;100474.56;5083138;28;20466;-79
2022/04/24 07:35:48;;;;;;;11.65;6.72;;;;;;;21.58;34.08;100477.22;5079572;28;20031;-81
2022/04/24 07:38:13;;;;;;;10.63;7.40;;;;;;;21.60;34.50;100475.84;5082378;28;20033;-80
2022/04/24 07:40:39;;;;;;;9.23;7.10;;;;;;;22.05;33.24;100465.41;5085285;28;20488;-81
2022/04/24 07:43:07;;;;;;;10.43;7.30;;;;;;;21.98;33.12;100471.13;5082662;28;20028;-80
2022/04/24 07:45:36;;;;;;;;;;;;;;;21.79;33.05;100468.03;5068569;28;20100;-80
2022/04/24 07:48:04;;;;;;;10.00;7.40;;;;;;;21.62;33.31;100467.38;5067469;28;19974;-80
2022/04/24 07:50:33;;;;;;;11.05;7.22;;;;;;;21.78;32.87;100469.13;5084775;28;20021;-80
2022/04/24 07:52:58;;;;;;;10.82;7.20;;;;;;;21.97;33.17;100469.47;5064363;28;20131;-80
2022/04/24 07:55:24;;;;;;;13.48;8.65;;;;;;;22.32;33.09;100468.00;5079550;28;20067;-79
2022/04/24 07:57:54;;;;;;;11.57;7.47;;;;;;;22.60;32.17;100472.19;5082224;28;20036;-81
2022/04/24 08:00:21;;;;;;;16.45;9.77;;;;;;;22.56;32.36;100473.81;5080804;28;20454;-81
2022/04/24 08:02:58;;;;;;;15.65;7.63;;;;;;;22.92;31.16;100482.13;5083477;28;20054;-81
2022/04/24 08:05:24;;;;;;;13.07;7.90;;;;;;;23.13;31.05;100488.47;5082034;28;20060;-81
2022/04/24 08:07:50;;;;;;;10.53;6.77;;;;;;;23.31;30.77;100487.94;5080424;28;20055;-81
2022/04/24 08:10:16;;;;;;;10.80;7.43;;;;;;;23.52;30.10;100487.91;5079384;28;20029;-81
2022/04/24 08:12:41;;;;;;;10.93;7.53;;;;;;;23.34;30.43;100490.13;5087075;28;20020;-80
2022/04/24 08:15:07;;;;;;;14.13;7.40;;;;;;;23.33;31.19;100493.13;5084004;28;20062;-80
2022/04/24 08:17:33;;;;;;;10.65;7.63;;;;;;;23.54;30.77;100488.44;5083436;28;20085;-81
2022/04/24 08:19:58;;;;;;;17.95;7.47;;;;;;;23.62;29.85;100494.22;5071292;28;20074;-80
2022/04/24 08:22:23;;;;;;;9.50;7.22;;;;;;;23.42;30.17;100502.47;5096567;28;20012;-80
2022/04/24 08:24:49;;;;;;;10.40;7.47;;;;;;;23.43;30.14;100499.47;5086564;28;20036;-81
2022/04/24 08:27:14;;;;;;;13.77;7.85;;;;;;;23.38;30.70;100504.13;5082823;28;20029;-81
2022/04/24 08:29:39;;;;;;;10.80;7.20;;;;;;;23.43;30.43;100506.84;5083254;28;20127;-82
2022/04/24 08:32:05;;;;;;;9.05;7.80;;;;;;;23.40;29.58;100510.97;5063472;28;20028;-82
2022/04/24 08:34:30;;;;;;;11.77;8.35;;;;;;;23.13;30.58;100502.22;5080812;28;20500;-81
2022/04/24 08:36:55;;;;;;;14.30;8.60;;;;;;;23.33;30.31;100502.22;5079951;28;20028;-81
2022/04/24 08:39:21;;;;;;;16.38;8.35;;;;;;;23.37;30.37;100508.78;5063934;28;20029;-81
2022/04/24 08:41:46;;;;;;;12.90;7.97;;;;;;;23.31;30.52;100509.91;5079543;28;20486;-82
2022/04/24 08:44:12;;;;;;;12.80;7.38;;;;;;;23.48;30.36;100519.78;5076937;28;20387;-83
2022/04/24 08:46:37;;;;;;;12.30;8.05;;;;;;;23.37;30.07;100508.78;5079329;28;20039;-80
2022/04/24 08:49:03;;;;;;;14.80;8.60;;;;;;;23.53;29.73;100512.34;5080655;28;20128;-80
2022/04/24 08:51:29;;;;;;;12.45;8.52;;;;;;;23.31;30.08;100518.13;5078032;28;20021;-82
2022/04/24 08:53:55;;;;;;;16.13;9.30;;;;;;;23.39;30.46;100517.59;5079406;28;20017;-81
2022/04/24 08:56:20;;;;;;;14.25;8.60;;;;;;;23.74;29.93;100515.91;5073196;28;20035;-81
2022/04/24 08:58:45;;;;;;;10.25;7.90;;;;;;;23.99;30.19;100517.78;5076356;28;20025;-80
2022/04/24 09:01:11;;;;;;;13.57;8.90;;;;;;;24.01;29.86;100523.00;5079483;28;20028;-80
2022/04/24 09:03:37;;;;;;;13.95;8.30;;;;;;;24.06;29.19;100525.72;5080436;28;20024;-80
2022/04/24 09:06:02;;;;;;;12.45;8.07;;;;;;;23.82;29.97;100517.28;5079206;28;20615;-79
2022/04/24 09:08:30;;;;;;;12.80;8.98;;;;;;;23.88;30.57;100519.75;5081619;28;20060;-80
2022/04/24 09:10:57;;;;;;;13.23;8.38;;;;;;;24.37;29.83;100522.88;5057372;28;20040;-80
2022/04/24 09:14:14;;;;;;;14.95;8.40;;;;;;;24.53;29.59;100524.47;5079391;28;20055;-80
2022/04/24 09:16:38;;;;;;;17.27;8.27;;;;;;;24.74;27.92;100520.50;5079362;28;20542;-81
2022/04/24 09:19:14;;;;;;;11.35;8.07;;;;;;;24.16;28.88;100520.19;5081835;28;20060;-78
2022/04/24 09:21:39;;;;;;;15.55;8.15;;;;;;;24.09;29.55;100525.16;5060718;28;20036;-79
2022/04/24 09:24:05;;;;;;;12.35;8.38;;;;;;;24.10;30.01;100524.09;5080262;28;20036;-80
2022/04/24 09:26:30;;;;;;;11.35;8.15;;;;;;;24.23;29.75;100528.97;5060511;28;20032;-80
2022/04/24 09:28:55;;;;;;;10.63;7.88;;;;;;;24.40;29.58;100525.88;5081012;28;20028;-81
2022/04/24 09:31:28;;;;;;;15.93;8.70;;;;;;;24.27;29.35;100537.47;5084569;28;20051;-79
2022/04/24 09:33:54;;;;;;;11.80;8.30;;;;;;;24.59;29.40;100537.09;5065155;28;20108;-81
2022/04/24 09:36:24;;;;;;;14.07;8.55;;;;;;;24.72;29.50;100528.25;5081601;28;20056;-81
2022/04/24 09:38:49;;;;;;;10.65;7.82;;;;;;;25.07;28.66;100537.38;5081671;28;20107;-81
2022/04/24 09:41:19;;;;;;;10.15;8.05;;;;;;;25.18;28.09;100535.38;5081177;28;20033;-80
2022/04/24 09:43:45;;;;;;;19.10;8.68;;;;;;;25.02;27.90;100542.91;5080944;28;20033;-80
2022/04/24 09:46:10;;;;;;;12.52;8.43;;;;;;;24.62;27.93;100531.03;5083228;28;20035;-80
2022/04/24 09:48:35;;;;;;;16.73;9.35;;;;;;;24.46;28.01;100529.44;5080444;28;20032;-80
2022/04/24 09:51:01;;;;;;;34.28;14.60;;;;;;;24.32;29.90;100538.28;5081784;28;20040;-80
2022/04/24 09:53:28;;;;;;;29.75;14.20;;;;;;;24.29;29.80;100538.84;5080867;28;20029;-78
2022/04/24 09:55:55;;;;;;;48.10;22.45;;;;;;;24.30;29.75;100534.16;5081367;28;20028;-80
2022/04/24 09:58:21;;;;;;;19.03;10.77;;;;;;;24.69;29.36;100533.47;5080000;28;20024;-79
2022/04/24 10:00:46;;;;;;;27.75;14.27;;;;;;;24.98;29.06;100539.06;5076902;28;20016;-82
2022/04/24 10:03:14;;;;;;;13.85;8.70;;;;;;;25.33;28.62;100534.44;5080118;28;20031;-79
2022/04/24 10:05:42;;;;;;;14.93;9.73;;;;;;;25.38;27.70;100539.91;5078747;28;20027;-80
2022/04/24 10:08:07;;;;;;;14.65;9.02;;;;;;;25.05;28.28;100536.00;5080913;28;20025;-80
2022/04/24 10:10:33;;;;;;;14.27;8.15;;;;;;;25.17;28.58;100537.31;5081012;28;20152;-80
2022/04/24 10:13:05;;;;;;;19.63;8.52;;;;;;;25.06;27.89;100532.94;5082396;28;20040;-80
2022/04/24 10:15:32;;;;;;;13.30;8.43;;;;;;;25.30;27.89;100535.00;5083796;28;20042;-80
2022/04/24 10:18:19;;;;;;;14.02;9.18;;;;;;;25.23;27.53;100543.63;5083452;28;20316;-78
2022/04/24 10:21:21;;;;;;;11.40;8.13;;;;;;;24.64;28.35;100531.56;5085325;28;20499;-79
2022/04/24 10:23:47;;;;;;;18.73;9.10;;;;;;;24.48;28.78;100533.56;5084501;28;20029;-80
2022/04/24 10:26:22;;;;;;;13.35;8.43;;;;;;;24.64;27.92;100541.75;5084839;28;20035;-79
2022/04/24 10:28:49;;;;;;;17.15;9.32;;;;;;;24.31;29.37;100541.34;5081928;28;20029;-79
2022/04/24 10:31:16;;;;;;;16.92;9.80;;;;;;;24.27;29.46;100545.72;5079888;28;20021;-80
2022/04/24 10:33:51;;;;;;;16.67;9.52;;;;;;;23.74;29.21;100535.16;5082404;28;20047;-79
2022/04/24 10:36:17;;;;;;;13.35;8.40;;;;;;;23.69;29.51;100537.88;5081887;28;20040;-81
2022/04/24 10:39:00;;;;;;;20.52;8.90;;;;;;;23.74;29.77;100540.66;5082680;28;20096;-79
2022/04/24 10:41:29;;;;;;;15.48;7.93;;;;;;;24.02;29.53;100541.16;5084004;28;20064;-80
2022/04/24 10:43:59;;;;;;;15.27;8.68;;;;;;;24.50;29.08;100549.81;5082298;28;20020;-80
2022/04/24 10:46:26;;;;;;;14.45;8.98;;;;;;;24.84;28.48;100549.91;5085463;28;20035;-80
2022/04/24 10:48:52;;;;;;;13.07;8.90;;;;;;;25.09;28.46;100548.94;5082535;28;20458;-82
2022/04/24 10:51:31;;;;;;;17.15;9.30;;;;;;;25.22;27.51;100555.72;5083595;28;20451;-80
2022/04/24 10:54:01;;;;;;;17.40;8.60;;;;;;;25.26;27.93;100551.28;5081341;28;20027;-80
2022/04/24 10:56:28;;;;;;;20.15;9.60;;;;;;;24.72;27.74;100557.66;5082673;28;20031;-81
2022/04/24 10:59:05;;;;;;;19.00;9.65;;;;;;;24.35;28.62;100549.84;5091450;28;20078;-80
2022/04/24 11:01:35;;;;;;;12.27;9.00;;;;;;;23.84;29.71;100543.38;5098121;28;20016;-80
2022/04/24 11:04:08;;;;;;;14.73;10.00;;;;;;;23.67;29.78;100540.91;5096526;28;20024;-80
2022/04/24 11:06:34;;;;;;;19.77;9.07;;;;;;;23.80;29.40;100533.22;5087954;28;20052;-81
2022/04/24 11:09:10;;;;;;;15.90;9.10;;;;;;;24.25;29.26;100537.78;5088685;28;20495;-80
2022/04/24 11:11:45;;;;;;;13.45;9.00;;;;;;;24.48;28.44;100536.31;5087816;28;20032;-80
2022/04/24 11:14:10;;;;;;;18.60;8.90;;;;;;;24.57;28.06;100535.75;5086129;28;20059;-80